Wheeler Sack Army Air Field Fort Drum US
ICAO: KGTB
IATA: GTB
Category: Medium
Scheduled Services: No

Elevation: 688 ft
TransAlt. 18000 ft.

Airport Communications:
APP/DEP:128.25
ATIS:126.55
GND:121.9
FORT DRUM FLT FLW:141.025
BASE OPS:120.8
PMSV SACK METRO:63.3
TWR:118.75

KGTB Zoom In..

Runways:

(A) RW 03 length 10000 ft width 150 ft
ILS 108.50 / hdg 29

(B) RW 08 length 4501 ft width 150 ft
---- / hdg 84

(C) RW 15 length 4998 ft width 150 ft
---- / hdg 147

(D) RW 21 length 10000 ft width 150 ft
ILS 108.50 / hdg 209

(E) RW 26 length 4501 ft width 150 ft
---- / hdg 264

(F) RW 33 length 4998 ft width 150 ft
---- / hdg 327

Location; KGTB
Day. 23 / Time. 13.56 Zulu
* Altimeter: 29.53
* Temperature: 06° c. 42.8°f.
* Wind from: 160° Speed 16 kn.
Dewpoint: 04° c.
Visibility: 10 Statute Miles.
Clouds: Scattered 9500 ft.

KGTB 231356Z 16016KT 10SM SCT095 06/04 A2953 RMK AO2A SLPNO ALSTG ESTMD T00590039 TSNO $


Wind From 160°
Speed 16 kn.

YouTube Music Video
 
jpsmedia.com for Web Design  worldairports.se 2018   terms of use